sensor_id;sensor_type;location;lat;lon;timestamp;temperature;humidity
15083;DHT22;7640;53.116;6.878;2024-01-11T00:00:51;-4.50;99.90
15083;DHT22;7640;53.116;6.878;2024-01-11T00:03:19;-4.50;99.90
15083;DHT22;7640;53.116;6.878;2024-01-11T00:05:51;-4.50;99.90
15083;DHT22;7640;53.116;6.878;2024-01-11T00:08:21;-4.50;99.90
15083;DHT22;7640;53.116;6.878;2024-01-11T00:10:50;-4.40;99.90
15083;DHT22;7640;53.116;6.878;2024-01-11T00:13:18;-4.50;99.90
15083;DHT22;7640;53.116;6.878;2024-01-11T00:15:47;-4.50;99.90
15083;DHT22;7640;53.116;6.878;2024-01-11T00:18:16;-4.50;99.90
15083;DHT22;7640;53.116;6.878;2024-01-11T00:20:46;-4.50;99.90
15083;DHT22;7640;53.116;6.878;2024-01-11T00:23:14;-4.50;99.90
15083;DHT22;7640;53.116;6.878;2024-01-11T00:25:45;-4.50;99.90
15083;DHT22;7640;53.116;6.878;2024-01-11T00:28:13;-4.50;99.90
15083;DHT22;7640;53.116;6.878;2024-01-11T00:30:42;-4.50;99.90
15083;DHT22;7640;53.116;6.878;2024-01-11T00:33:11;-4.50;99.90
15083;DHT22;7640;53.116;6.878;2024-01-11T00:35:40;-4.50;99.90
15083;DHT22;7640;53.116;6.878;2024-01-11T00:38:09;-4.50;99.90
15083;DHT22;7640;53.116;6.878;2024-01-11T00:40:37;-4.40;99.90
15083;DHT22;7640;53.116;6.878;2024-01-11T00:43:07;-4.40;99.90
15083;DHT22;7640;53.116;6.878;2024-01-11T00:45:36;-4.40;99.90
15083;DHT22;7640;53.116;6.878;2024-01-11T00:48:05;-4.40;99.90
15083;DHT22;7640;53.116;6.878;2024-01-11T00:50:34;-4.40;99.90
15083;DHT22;7640;53.116;6.878;2024-01-11T00:53:03;-4.40;99.90
15083;DHT22;7640;53.116;6.878;2024-01-11T00:55:32;-4.40;99.90
15083;DHT22;7640;53.116;6.878;2024-01-11T00:58:01;-4.40;99.90
15083;DHT22;7640;53.116;6.878;2024-01-11T01:00:33;-4.40;99.90
15083;DHT22;7640;53.116;6.878;2024-01-11T01:03:02;-4.40;99.90
15083;DHT22;7640;53.116;6.878;2024-01-11T01:05:31;-4.40;99.90
15083;DHT22;7640;53.116;6.878;2024-01-11T01:07:59;-4.40;99.90
15083;DHT22;7640;53.116;6.878;2024-01-11T01:10:29;-4.40;99.90
15083;DHT22;7640;53.116;6.878;2024-01-11T01:12:58;-4.40;99.90
15083;DHT22;7640;53.116;6.878;2024-01-11T01:15:26;-4.30;99.90
15083;DHT22;7640;53.116;6.878;2024-01-11T01:17:56;-4.30;99.90
15083;DHT22;7640;53.116;6.878;2024-01-11T01:20:26;-4.30;99.90
15083;DHT22;7640;53.116;6.878;2024-01-11T01:22:55;-4.40;99.90
15083;DHT22;7640;53.116;6.878;2024-01-11T01:25:24;-4.40;99.90
15083;DHT22;7640;53.116;6.878;2024-01-11T01:27:52;-4.40;99.90
15083;DHT22;7640;53.116;6.878;2024-01-11T01:30:21;-4.40;99.90
15083;DHT22;7640;53.116;6.878;2024-01-11T01:32:50;-4.40;99.90
15083;DHT22;7640;53.116;6.878;2024-01-11T01:35:21;-4.40;99.90
15083;DHT22;7640;53.116;6.878;2024-01-11T01:37:50;-4.40;99.90
15083;DHT22;7640;53.116;6.878;2024-01-11T01:40:18;-4.30;99.90
15083;DHT22;7640;53.116;6.878;2024-01-11T01:42:48;-4.30;99.90
15083;DHT22;7640;53.116;6.878;2024-01-11T01:45:17;-4.30;99.90
15083;DHT22;7640;53.116;6.878;2024-01-11T01:47:46;-4.30;99.90
15083;DHT22;7640;53.116;6.878;2024-01-11T01:50:15;-4.30;99.90
15083;DHT22;7640;53.116;6.878;2024-01-11T01:52:45;-4.30;99.90
15083;DHT22;7640;53.116;6.878;2024-01-11T01:55:14;-4.30;99.90
15083;DHT22;7640;53.116;6.878;2024-01-11T01:57:45;-4.30;99.90
15083;DHT22;7640;53.116;6.878;2024-01-11T02:00:14;-4.30;99.90
15083;DHT22;7640;53.116;6.878;2024-01-11T02:02:44;-4.30;99.90
15083;DHT22;7640;53.116;6.878;2024-01-11T02:05:14;-4.30;99.90
15083;DHT22;7640;53.116;6.878;2024-01-11T02:07:45;-4.30;99.90
15083;DHT22;7640;53.116;6.878;2024-01-11T02:10:15;-4.30;99.90
15083;DHT22;7640;53.116;6.878;2024-01-11T02:12:44;-4.20;99.90
15083;DHT22;7640;53.116;6.878;2024-01-11T02:15:14;-4.20;99.90
15083;DHT22;7640;53.116;6.878;2024-01-11T02:17:42;-4.30;99.90
15083;DHT22;7640;53.116;6.878;2024-01-11T02:20:12;-4.20;99.90
15083;DHT22;7640;53.116;6.878;2024-01-11T02:22:48;-4.30;99.90
15083;DHT22;7640;53.116;6.878;2024-01-11T02:25:21;-4.20;99.90
15083;DHT22;7640;53.116;6.878;2024-01-11T02:27:50;-4.20;99.90
15083;DHT22;7640;53.116;6.878;2024-01-11T02:30:19;-4.20;99.90
15083;DHT22;7640;53.116;6.878;2024-01-11T02:32:49;-4.20;99.90
15083;DHT22;7640;53.116;6.878;2024-01-11T02:35:19;-4.20;99.90
15083;DHT22;7640;53.116;6.878;2024-01-11T02:37:48;-4.10;99.90
15083;DHT22;7640;53.116;6.878;2024-01-11T02:40:19;-4.10;99.90
15083;DHT22;7640;53.116;6.878;2024-01-11T02:42:49;-4.10;99.90
15083;DHT22;7640;53.116;6.878;2024-01-11T02:45:18;-4.10;99.90
15083;DHT22;7640;53.116;6.878;2024-01-11T02:47:47;-4.10;99.90
15083;DHT22;7640;53.116;6.878;2024-01-11T02:50:17;-4.10;99.90
15083;DHT22;7640;53.116;6.878;2024-01-11T02:52:46;-4.10;99.90
15083;DHT22;7640;53.116;6.878;2024-01-11T02:55:14;-4.20;99.90
15083;DHT22;7640;53.116;6.878;2024-01-11T02:57:45;-4.20;99.90
15083;DHT22;7640;53.116;6.878;2024-01-11T03:00:14;-4.20;99.90
15083;DHT22;7640;53.116;6.878;2024-01-11T03:02:46;-4.20;99.90
15083;DHT22;7640;53.116;6.878;2024-01-11T03:05:15;-4.20;99.90
15083;DHT22;7640;53.116;6.878;2024-01-11T03:07:47;-4.20;99.90
15083;DHT22;7640;53.116;6.878;2024-01-11T03:10:16;-4.30;99.90
15083;DHT22;7640;53.116;6.878;2024-01-11T03:12:46;-4.30;99.90
15083;DHT22;7640;53.116;6.878;2024-01-11T03:15:18;-4.30;99.90
15083;DHT22;7640;53.116;6.878;2024-01-11T03:17:46;-4.30;99.90
15083;DHT22;7640;53.116;6.878;2024-01-11T03:20:15;-4.30;99.90
15083;DHT22;7640;53.116;6.878;2024-01-11T03:22:47;-4.30;99.90
15083;DHT22;7640;53.116;6.878;2024-01-11T03:25:18;-4.30;99.90
15083;DHT22;7640;53.116;6.878;2024-01-11T03:27:48;-4.30;99.90
15083;DHT22;7640;53.116;6.878;2024-01-11T03:30:19;-4.30;99.90
15083;DHT22;7640;53.116;6.878;2024-01-11T03:32:48;-4.30;99.90
15083;DHT22;7640;53.116;6.878;2024-01-11T03:35:18;-4.30;99.90
15083;DHT22;7640;53.116;6.878;2024-01-11T03:37:47;-4.20;99.90
15083;DHT22;7640;53.116;6.878;2024-01-11T03:40:16;-4.20;99.90
15083;DHT22;7640;53.116;6.878;2024-01-11T03:42:45;-4.20;99.90
15083;DHT22;7640;53.116;6.878;2024-01-11T03:45:18;-4.20;99.90
15083;DHT22;7640;53.116;6.878;2024-01-11T03:47:46;-4.20;99.90
15083;DHT22;7640;53.116;6.878;2024-01-11T03:50:15;-4.10;99.90
15083;DHT22;7640;53.116;6.878;2024-01-11T03:52:43;-4.10;99.90
15083;DHT22;7640;53.116;6.878;2024-01-11T03:55:12;-4.10;99.90
15083;DHT22;7640;53.116;6.878;2024-01-11T03:57:41;-4.10;99.90
15083;DHT22;7640;53.116;6.878;2024-01-11T04:00:12;-4.00;99.90
15083;DHT22;7640;53.116;6.878;2024-01-11T04:02:42;-4.00;99.90
15083;DHT22;7640;53.116;6.878;2024-01-11T04:05:11;-4.00;99.90
15083;DHT22;7640;53.116;6.878;2024-01-11T04:07:40;-3.90;99.90
15083;DHT22;7640;53.116;6.878;2024-01-11T04:10:09;-3.90;99.90
15083;DHT22;7640;53.116;6.878;2024-01-11T04:12:37;-3.80;99.90
15083;DHT22;7640;53.116;6.878;2024-01-11T04:15:08;-3.80;99.90
15083;DHT22;7640;53.116;6.878;2024-01-11T04:17:38;-3.70;99.90
15083;DHT22;7640;53.116;6.878;2024-01-11T04:20:09;-3.70;99.90
15083;DHT22;7640;53.116;6.878;2024-01-11T04:22:38;-3.60;99.90
15083;DHT22;7640;53.116;6.878;2024-01-11T04:25:07;-3.50;99.90
15083;DHT22;7640;53.116;6.878;2024-01-11T04:27:37;-3.40;99.90
15083;DHT22;7640;53.116;6.878;2024-01-11T04:30:06;-3.40;99.90
15083;DHT22;7640;53.116;6.878;2024-01-11T04:32:36;-3.30;99.90
15083;DHT22;7640;53.116;6.878;2024-01-11T04:35:05;-3.20;99.90
15083;DHT22;7640;53.116;6.878;2024-01-11T04:37:36;-3.20;99.90
15083;DHT22;7640;53.116;6.878;2024-01-11T04:40:07;-3.10;99.90
15083;DHT22;7640;53.116;6.878;2024-01-11T04:42:36;-3.00;99.90
15083;DHT22;7640;53.116;6.878;2024-01-11T04:45:05;-3.00;99.90
15083;DHT22;7640;53.116;6.878;2024-01-11T04:47:33;-2.90;99.90
15083;DHT22;7640;53.116;6.878;2024-01-11T04:50:02;-2.80;99.90
15083;DHT22;7640;53.116;6.878;2024-01-11T04:52:31;-2.70;99.90
15083;DHT22;7640;53.116;6.878;2024-01-11T04:55:01;-2.70;99.90
15083;DHT22;7640;53.116;6.878;2024-01-11T04:57:30;-2.70;99.90
15083;DHT22;7640;53.116;6.878;2024-01-11T04:59:58;-2.60;99.90
15083;DHT22;7640;53.116;6.878;2024-01-11T05:02:29;-2.50;99.90
15083;DHT22;7640;53.116;6.878;2024-01-11T05:05:00;-2.50;99.90
15083;DHT22;7640;53.116;6.878;2024-01-11T05:07:28;-2.40;99.90
15083;DHT22;7640;53.116;6.878;2024-01-11T05:09:57;-2.40;99.90
15083;DHT22;7640;53.116;6.878;2024-01-11T05:12:28;-2.30;99.90
15083;DHT22;7640;53.116;6.878;2024-01-11T05:14:56;-2.20;99.90
15083;DHT22;7640;53.116;6.878;2024-01-11T05:17:26;-2.20;99.90
15083;DHT22;7640;53.116;6.878;2024-01-11T05:19:55;-2.10;99.90
15083;DHT22;7640;53.116;6.878;2024-01-11T05:22:23;-2.00;99.90
15083;DHT22;7640;53.116;6.878;2024-01-11T05:24:52;-2.00;99.90
15083;DHT22;7640;53.116;6.878;2024-01-11T05:27:21;-1.90;99.90
15083;DHT22;7640;53.116;6.878;2024-01-11T05:29:51;-1.90;99.90
15083;DHT22;7640;53.116;6.878;2024-01-11T05:32:19;-1.80;99.90
15083;DHT22;7640;53.116;6.878;2024-01-11T05:34:49;-1.80;99.90
15083;DHT22;7640;53.116;6.878;2024-01-11T05:37:18;-1.80;99.90
15083;DHT22;7640;53.116;6.878;2024-01-11T05:39:48;-1.70;99.90
15083;DHT22;7640;53.116;6.878;2024-01-11T05:42:17;-1.70;99.90
15083;DHT22;7640;53.116;6.878;2024-01-11T05:44:46;-1.60;99.90
15083;DHT22;7640;53.116;6.878;2024-01-11T05:47:16;-1.60;99.90
15083;DHT22;7640;53.116;6.878;2024-01-11T05:49:45;-1.60;99.90
15083;DHT22;7640;53.116;6.878;2024-01-11T05:52:14;-1.60;99.90
15083;DHT22;7640;53.116;6.878;2024-01-11T05:54:44;-1.60;99.90
15083;DHT22;7640;53.116;6.878;2024-01-11T05:57:12;-1.60;99.90
15083;DHT22;7640;53.116;6.878;2024-01-11T05:59:43;-1.60;99.90
15083;DHT22;7640;53.116;6.878;2024-01-11T06:02:13;-1.50;99.90
15083;DHT22;7640;53.116;6.878;2024-01-11T06:04:43;-1.50;99.90
15083;DHT22;7640;53.116;6.878;2024-01-11T06:07:15;-1.50;99.90
15083;DHT22;7640;53.116;6.878;2024-01-11T06:09:43;-1.40;99.90
15083;DHT22;7640;53.116;6.878;2024-01-11T06:12:12;-1.40;99.90
15083;DHT22;7640;53.116;6.878;2024-01-11T06:14:41;-1.40;99.90
15083;DHT22;7640;53.116;6.878;2024-01-11T06:17:09;-1.30;99.90
15083;DHT22;7640;53.116;6.878;2024-01-11T06:19:38;-1.30;99.90
15083;DHT22;7640;53.116;6.878;2024-01-11T06:22:08;-1.30;99.90
15083;DHT22;7640;53.116;6.878;2024-01-11T06:24:37;-1.30;99.90
15083;DHT22;7640;53.116;6.878;2024-01-11T06:27:05;-1.30;99.90
15083;DHT22;7640;53.116;6.878;2024-01-11T06:29:34;-1.20;99.90
15083;DHT22;7640;53.116;6.878;2024-01-11T06:32:03;-1.20;99.90
15083;DHT22;7640;53.116;6.878;2024-01-11T06:34:32;-1.20;99.90
15083;DHT22;7640;53.116;6.878;2024-01-11T06:37:01;-1.20;99.90
15083;DHT22;7640;53.116;6.878;2024-01-11T06:39:31;-1.10;99.90
15083;DHT22;7640;53.116;6.878;2024-01-11T06:42:00;-1.10;99.90
15083;DHT22;7640;53.116;6.878;2024-01-11T06:44:29;-1.00;99.90
15083;DHT22;7640;53.116;6.878;2024-01-11T06:46:58;-1.00;99.90
15083;DHT22;7640;53.116;6.878;2024-01-11T06:49:28;-1.00;99.90
15083;DHT22;7640;53.116;6.878;2024-01-11T06:51:57;-0.90;99.90
15083;DHT22;7640;53.116;6.878;2024-01-11T06:54:25;-1.00;99.90
15083;DHT22;7640;53.116;6.878;2024-01-11T06:56:56;-0.90;99.90
15083;DHT22;7640;53.116;6.878;2024-01-11T06:59:24;-0.90;99.90
15083;DHT22;7640;53.116;6.878;2024-01-11T07:01:53;-0.80;99.90
15083;DHT22;7640;53.116;6.878;2024-01-11T07:04:21;-0.80;99.90
15083;DHT22;7640;53.116;6.878;2024-01-11T07:06:50;-0.80;99.90
15083;DHT22;7640;53.116;6.878;2024-01-11T07:09:19;-0.70;99.90
15083;DHT22;7640;53.116;6.878;2024-01-11T07:11:48;-0.70;99.90
15083;DHT22;7640;53.116;6.878;2024-01-11T07:14:18;-0.70;99.90
15083;DHT22;7640;53.116;6.878;2024-01-11T07:16:47;-0.70;99.90
15083;DHT22;7640;53.116;6.878;2024-01-11T07:19:16;-0.60;99.90
15083;DHT22;7640;53.116;6.878;2024-01-11T07:21:45;-0.60;99.90
15083;DHT22;7640;53.116;6.878;2024-01-11T07:24:14;-0.60;99.90
15083;DHT22;7640;53.116;6.878;2024-01-11T07:26:42;-0.60;99.90
15083;DHT22;7640;53.116;6.878;2024-01-11T07:29:11;-0.50;99.90
15083;DHT22;7640;53.116;6.878;2024-01-11T07:31:41;-0.50;99.90
15083;DHT22;7640;53.116;6.878;2024-01-11T07:34:10;-0.50;99.90
15083;DHT22;7640;53.116;6.878;2024-01-11T07:36:39;-0.40;99.90
15083;DHT22;7640;53.116;6.878;2024-01-11T07:39:08;-0.40;99.90
15083;DHT22;7640;53.116;6.878;2024-01-11T07:41:37;-0.30;99.90
15083;DHT22;7640;53.116;6.878;2024-01-11T07:44:08;-0.30;99.90
15083;DHT22;7640;53.116;6.878;2024-01-11T07:46:37;-0.30;99.90
15083;DHT22;7640;53.116;6.878;2024-01-11T07:49:19;-0.30;99.90
15083;DHT22;7640;53.116;6.878;2024-01-11T07:51:48;-0.20;99.90
15083;DHT22;7640;53.116;6.878;2024-01-11T07:54:17;-0.20;99.90
15083;DHT22;7640;53.116;6.878;2024-01-11T07:56:46;-0.20;99.90
15083;DHT22;7640;53.116;6.878;2024-01-11T07:59:14;-0.10;99.90
15083;DHT22;7640;53.116;6.878;2024-01-11T08:01:43;-0.10;99.90
15083;DHT22;7640;53.116;6.878;2024-01-11T08:04:12;-0.10;99.90
15083;DHT22;7640;53.116;6.878;2024-01-11T08:06:42;0.00;99.90
15083;DHT22;7640;53.116;6.878;2024-01-11T08:09:13;0.00;99.90
15083;DHT22;7640;53.116;6.878;2024-01-11T08:11:42;0.10;99.90
15083;DHT22;7640;53.116;6.878;2024-01-11T08:14:17;0.10;99.90
15083;DHT22;7640;53.116;6.878;2024-01-11T08:16:46;0.10;99.90
15083;DHT22;7640;53.116;6.878;2024-01-11T08:19:17;0.20;99.90
15083;DHT22;7640;53.116;6.878;2024-01-11T08:21:49;0.20;99.90
15083;DHT22;7640;53.116;6.878;2024-01-11T08:24:18;0.20;99.90
15083;DHT22;7640;53.116;6.878;2024-01-11T08:26:47;0.20;99.90
15083;DHT22;7640;53.116;6.878;2024-01-11T08:29:16;0.30;99.90
15083;DHT22;7640;53.116;6.878;2024-01-11T08:31:46;0.30;99.90
15083;DHT22;7640;53.116;6.878;2024-01-11T08:34:15;0.30;99.90
15083;DHT22;7640;53.116;6.878;2024-01-11T08:36:44;0.40;99.90
15083;DHT22;7640;53.116;6.878;2024-01-11T08:39:14;0.40;99.90
15083;DHT22;7640;53.116;6.878;2024-01-11T08:41:43;0.40;99.90
15083;DHT22;7640;53.116;6.878;2024-01-11T08:44:12;0.40;99.90
15083;DHT22;7640;53.116;6.878;2024-01-11T08:46:41;0.50;99.90
15083;DHT22;7640;53.116;6.878;2024-01-11T08:49:10;0.50;99.90
15083;DHT22;7640;53.116;6.878;2024-01-11T08:51:39;0.50;99.90
15083;DHT22;7640;53.116;6.878;2024-01-11T08:54:08;0.60;99.90
15083;DHT22;7640;53.116;6.878;2024-01-11T08:56:39;0.60;99.90
15083;DHT22;7640;53.116;6.878;2024-01-11T08:59:08;0.70;99.90
15083;DHT22;7640;53.116;6.878;2024-01-11T09:01:37;0.70;99.90
15083;DHT22;7640;53.116;6.878;2024-01-11T09:04:10;0.80;99.90
15083;DHT22;7640;53.116;6.878;2024-01-11T09:06:40;0.90;99.90
15083;DHT22;7640;53.116;6.878;2024-01-11T09:09:08;1.00;99.90
15083;DHT22;7640;53.116;6.878;2024-01-11T09:11:39;1.00;99.90
15083;DHT22;7640;53.116;6.878;2024-01-11T09:14:08;1.10;99.90
15083;DHT22;7640;53.116;6.878;2024-01-11T09:16:38;1.10;99.90
15083;DHT22;7640;53.116;6.878;2024-01-11T09:19:07;1.20;99.90
15083;DHT22;7640;53.116;6.878;2024-01-11T09:21:36;1.20;99.90
15083;DHT22;7640;53.116;6.878;2024-01-11T09:24:05;1.30;99.90
15083;DHT22;7640;53.116;6.878;2024-01-11T09:26:33;1.30;99.90
15083;DHT22;7640;53.116;6.878;2024-01-11T09:29:04;1.30;99.90
15083;DHT22;7640;53.116;6.878;2024-01-11T09:31:33;1.40;99.90
15083;DHT22;7640;53.116;6.878;2024-01-11T09:34:02;1.40;99.90
15083;DHT22;7640;53.116;6.878;2024-01-11T09:36:30;1.50;99.90
15083;DHT22;7640;53.116;6.878;2024-01-11T09:39:00;1.60;99.90
15083;DHT22;7640;53.116;6.878;2024-01-11T09:41:29;1.60;99.90
15083;DHT22;7640;53.116;6.878;2024-01-11T09:44:00;1.60;99.90
15083;DHT22;7640;53.116;6.878;2024-01-11T09:46:33;1.60;99.90
15083;DHT22;7640;53.116;6.878;2024-01-11T09:49:02;1.70;99.90
15083;DHT22;7640;53.116;6.878;2024-01-11T09:51:32;1.70;99.90
15083;DHT22;7640;53.116;6.878;2024-01-11T09:54:03;1.80;99.90
15083;DHT22;7640;53.116;6.878;2024-01-11T09:56:32;1.90;99.90
15083;DHT22;7640;53.116;6.878;2024-01-11T09:59:03;1.90;99.90
15083;DHT22;7640;53.116;6.878;2024-01-11T10:01:38;2.00;99.90
15083;DHT22;7640;53.116;6.878;2024-01-11T10:04:14;2.00;99.90
15083;DHT22;7640;53.116;6.878;2024-01-11T10:06:44;2.10;99.90
15083;DHT22;7640;53.116;6.878;2024-01-11T10:09:13;2.10;99.90
15083;DHT22;7640;53.116;6.878;2024-01-11T10:11:41;2.20;99.90
15083;DHT22;7640;53.116;6.878;2024-01-11T10:14:13;2.20;99.90
15083;DHT22;7640;53.116;6.878;2024-01-11T10:16:41;2.20;99.90
15083;DHT22;7640;53.116;6.878;2024-01-11T10:19:10;2.30;99.90
15083;DHT22;7640;53.116;6.878;2024-01-11T10:21:41;2.30;99.90
15083;DHT22;7640;53.116;6.878;2024-01-11T10:24:09;2.30;99.90
15083;DHT22;7640;53.116;6.878;2024-01-11T10:26:38;2.40;99.90
15083;DHT22;7640;53.116;6.878;2024-01-11T10:29:14;2.40;99.90
15083;DHT22;7640;53.116;6.878;2024-01-11T10:31:45;2.40;99.90
15083;DHT22;7640;53.116;6.878;2024-01-11T10:34:13;2.40;99.90
15083;DHT22;7640;53.116;6.878;2024-01-11T10:36:45;2.40;99.90
15083;DHT22;7640;53.116;6.878;2024-01-11T10:39:17;2.40;99.90
15083;DHT22;7640;53.116;6.878;2024-01-11T10:41:49;2.40;99.90
15083;DHT22;7640;53.116;6.878;2024-01-11T10:44:21;2.40;99.90
15083;DHT22;7640;53.116;6.878;2024-01-11T10:46:50;2.40;99.90
15083;DHT22;7640;53.116;6.878;2024-01-11T10:49:25;2.40;99.90
15083;DHT22;7640;53.116;6.878;2024-01-11T10:51:59;2.50;99.90
15083;DHT22;7640;53.116;6.878;2024-01-11T10:54:28;2.50;99.90
15083;DHT22;7640;53.116;6.878;2024-01-11T10:56:59;2.50;99.90
15083;DHT22;7640;53.116;6.878;2024-01-11T10:59:31;2.50;99.90
15083;DHT22;7640;53.116;6.878;2024-01-11T11:02:06;2.50;99.90
15083;DHT22;7640;53.116;6.878;2024-01-11T11:04:40;2.60;99.90
15083;DHT22;7640;53.116;6.878;2024-01-11T11:07:11;2.50;99.90
15083;DHT22;7640;53.116;6.878;2024-01-11T11:09:41;2.60;99.90
15083;DHT22;7640;53.116;6.878;2024-01-11T11:12:12;2.60;99.90
15083;DHT22;7640;53.116;6.878;2024-01-11T11:14:44;2.60;99.90
15083;DHT22;7640;53.116;6.878;2024-01-11T11:17:16;2.60;99.90
15083;DHT22;7640;53.116;6.878;2024-01-11T11:19:45;2.70;99.90
15083;DHT22;7640;53.116;6.878;2024-01-11T11:22:13;2.70;99.90
15083;DHT22;7640;53.116;6.878;2024-01-11T11:24:43;2.70;99.90
15083;DHT22;7640;53.116;6.878;2024-01-11T11:27:13;2.80;99.90
15083;DHT22;7640;53.116;6.878;2024-01-11T11:29:47;2.80;99.90
15083;DHT22;7640;53.116;6.878;2024-01-11T11:32:16;2.90;99.90
15083;DHT22;7640;53.116;6.878;2024-01-11T11:34:44;2.90;99.90
15083;DHT22;7640;53.116;6.878;2024-01-11T11:37:22;2.90;99.90
15083;DHT22;7640;53.116;6.878;2024-01-11T11:39:51;2.90;99.90
15083;DHT22;7640;53.116;6.878;2024-01-11T11:42:22;2.90;99.90
15083;DHT22;7640;53.116;6.878;2024-01-11T11:44:52;3.00;99.90
15083;DHT22;7640;53.116;6.878;2024-01-11T11:47:23;3.00;99.90
15083;DHT22;7640;53.116;6.878;2024-01-11T11:50:06;3.00;99.90
15083;DHT22;7640;53.116;6.878;2024-01-11T11:52:38;3.00;99.90
15083;DHT22;7640;53.116;6.878;2024-01-11T11:55:07;3.10;99.90
15083;DHT22;7640;53.116;6.878;2024-01-11T11:57:36;3.10;99.90
15083;DHT22;7640;53.116;6.878;2024-01-11T12:00:07;3.10;99.90
15083;DHT22;7640;53.116;6.878;2024-01-11T12:02:38;3.10;99.90
15083;DHT22;7640;53.116;6.878;2024-01-11T12:05:08;3.10;99.90
15083;DHT22;7640;53.116;6.878;2024-01-11T12:07:37;3.10;99.90
15083;DHT22;7640;53.116;6.878;2024-01-11T12:10:06;3.10;99.90
15083;DHT22;7640;53.116;6.878;2024-01-11T12:12:35;3.00;99.90
15083;DHT22;7640;53.116;6.878;2024-01-11T12:15:08;3.00;99.90
15083;DHT22;7640;53.116;6.878;2024-01-11T12:17:38;3.10;99.90
15083;DHT22;7640;53.116;6.878;2024-01-11T12:20:10;3.10;99.90
15083;DHT22;7640;53.116;6.878;2024-01-11T12:22:41;3.10;99.90
15083;DHT22;7640;53.116;6.878;2024-01-11T12:25:11;3.00;99.90
15083;DHT22;7640;53.116;6.878;2024-01-11T12:27:39;3.00;99.90
15083;DHT22;7640;53.116;6.878;2024-01-11T12:30:11;3.00;99.90
15083;DHT22;7640;53.116;6.878;2024-01-11T12:32:44;3.00;99.90
15083;DHT22;7640;53.116;6.878;2024-01-11T12:35:14;3.00;99.90
15083;DHT22;7640;53.116;6.878;2024-01-11T12:37:52;2.90;99.90
15083;DHT22;7640;53.116;6.878;2024-01-11T12:40:25;3.00;99.90
15083;DHT22;7640;53.116;6.878;2024-01-11T12:42:57;3.00;99.90
15083;DHT22;7640;53.116;6.878;2024-01-11T12:45:27;2.90;99.90
15083;DHT22;7640;53.116;6.878;2024-01-11T12:47:56;2.90;99.90
15083;DHT22;7640;53.116;6.878;2024-01-11T12:50:25;2.90;99.90
15083;DHT22;7640;53.116;6.878;2024-01-11T12:53:06;3.00;99.90
15083;DHT22;7640;53.116;6.878;2024-01-11T12:55:35;3.00;99.90
15083;DHT22;7640;53.116;6.878;2024-01-11T12:58:20;2.90;99.90
15083;DHT22;7640;53.116;6.878;2024-01-11T13:00:50;2.90;99.90
15083;DHT22;7640;53.116;6.878;2024-01-11T13:03:19;2.90;99.90
15083;DHT22;7640;53.116;6.878;2024-01-11T13:05:48;2.90;99.90
15083;DHT22;7640;53.116;6.878;2024-01-11T13:08:17;2.90;99.90
15083;DHT22;7640;53.116;6.878;2024-01-11T13:10:47;3.00;99.90
15083;DHT22;7640;53.116;6.878;2024-01-11T13:13:16;2.90;99.90
15083;DHT22;7640;53.116;6.878;2024-01-11T13:15:45;2.90;99.90
15083;DHT22;7640;53.116;6.878;2024-01-11T13:18:16;3.00;99.90
15083;DHT22;7640;53.116;6.878;2024-01-11T13:20:45;3.00;99.90
15083;DHT22;7640;53.116;6.878;2024-01-11T13:23:15;2.90;99.90
15083;DHT22;7640;53.116;6.878;2024-01-11T13:25:47;3.00;99.90
15083;DHT22;7640;53.116;6.878;2024-01-11T13:28:18;3.00;99.90
15083;DHT22;7640;53.116;6.878;2024-01-11T13:30:47;3.00;99.90
15083;DHT22;7640;53.116;6.878;2024-01-11T13:33:18;3.00;99.90
15083;DHT22;7640;53.116;6.878;2024-01-11T13:35:49;3.10;99.90
15083;DHT22;7640;53.116;6.878;2024-01-11T13:38:18;2.90;99.90
15083;DHT22;7640;53.116;6.878;2024-01-11T13:40:51;2.90;99.90
15083;DHT22;7640;53.116;6.878;2024-01-11T13:43:19;3.00;99.90
15083;DHT22;7640;53.116;6.878;2024-01-11T13:45:48;2.90;99.90
15083;DHT22;7640;53.116;6.878;2024-01-11T13:48:18;3.00;99.90
15083;DHT22;7640;53.116;6.878;2024-01-11T13:50:47;3.00;99.90
15083;DHT22;7640;53.116;6.878;2024-01-11T13:53:16;3.00;99.90
15083;DHT22;7640;53.116;6.878;2024-01-11T13:55:44;2.90;99.90
15083;DHT22;7640;53.116;6.878;2024-01-11T13:58:13;3.00;99.90
15083;DHT22;7640;53.116;6.878;2024-01-11T14:00:42;3.00;99.90
15083;DHT22;7640;53.116;6.878;2024-01-11T14:03:11;3.00;99.90
15083;DHT22;7640;53.116;6.878;2024-01-11T14:05:41;3.00;99.90
15083;DHT22;7640;53.116;6.878;2024-01-11T14:08:10;3.00;99.90
15083;DHT22;7640;53.116;6.878;2024-01-11T14:10:38;3.10;99.90
15083;DHT22;7640;53.116;6.878;2024-01-11T14:13:07;3.10;99.90
15083;DHT22;7640;53.116;6.878;2024-01-11T14:15:36;3.10;99.90
15083;DHT22;7640;53.116;6.878;2024-01-11T14:18:06;3.10;99.90
15083;DHT22;7640;53.116;6.878;2024-01-11T14:20:35;3.10;99.90
15083;DHT22;7640;53.116;6.878;2024-01-11T14:23:05;3.10;99.90
15083;DHT22;7640;53.116;6.878;2024-01-11T14:25:33;3.10;99.90
15083;DHT22;7640;53.116;6.878;2024-01-11T14:28:02;3.10;99.90
15083;DHT22;7640;53.116;6.878;2024-01-11T14:30:31;3.10;99.90
15083;DHT22;7640;53.116;6.878;2024-01-11T14:33:00;3.10;99.90
15083;DHT22;7640;53.116;6.878;2024-01-11T14:35:29;3.10;99.90
15083;DHT22;7640;53.116;6.878;2024-01-11T14:37:58;3.10;99.90
15083;DHT22;7640;53.116;6.878;2024-01-11T14:40:28;3.10;99.90
15083;DHT22;7640;53.116;6.878;2024-01-11T14:42:57;3.10;99.90
15083;DHT22;7640;53.116;6.878;2024-01-11T14:45:26;3.20;99.90
15083;DHT22;7640;53.116;6.878;2024-01-11T14:47:55;3.10;99.90
15083;DHT22;7640;53.116;6.878;2024-01-11T14:50:25;3.10;99.90
15083;DHT22;7640;53.116;6.878;2024-01-11T14:52:55;3.20;99.90
15083;DHT22;7640;53.116;6.878;2024-01-11T14:55:24;3.10;99.90
15083;DHT22;7640;53.116;6.878;2024-01-11T14:57:55;3.10;99.90
15083;DHT22;7640;53.116;6.878;2024-01-11T15:00:26;3.20;99.90
15083;DHT22;7640;53.116;6.878;2024-01-11T15:02:55;3.20;99.90
15083;DHT22;7640;53.116;6.878;2024-01-11T15:05:24;3.10;99.90
15083;DHT22;7640;53.116;6.878;2024-01-11T15:07:53;3.20;99.90
15083;DHT22;7640;53.116;6.878;2024-01-11T15:10:22;3.20;99.90
15083;DHT22;7640;53.116;6.878;2024-01-11T15:12:51;3.20;99.90
15083;DHT22;7640;53.116;6.878;2024-01-11T15:15:21;3.10;99.90
15083;DHT22;7640;53.116;6.878;2024-01-11T15:17:50;3.20;99.90
15083;DHT22;7640;53.116;6.878;2024-01-11T15:20:19;3.20;99.90
15083;DHT22;7640;53.116;6.878;2024-01-11T15:22:49;3.10;99.90
15083;DHT22;7640;53.116;6.878;2024-01-11T15:25:17;3.10;99.90
15083;DHT22;7640;53.116;6.878;2024-01-11T15:27:46;3.10;99.90
15083;DHT22;7640;53.116;6.878;2024-01-11T15:30:15;3.10;99.90
15083;DHT22;7640;53.116;6.878;2024-01-11T15:32:45;3.20;99.90
15083;DHT22;7640;53.116;6.878;2024-01-11T15:35:14;3.10;99.90
15083;DHT22;7640;53.116;6.878;2024-01-11T15:37:42;3.10;99.90
15083;DHT22;7640;53.116;6.878;2024-01-11T15:40:11;3.20;99.90
15083;DHT22;7640;53.116;6.878;2024-01-11T15:42:42;3.10;99.90
15083;DHT22;7640;53.116;6.878;2024-01-11T15:45:11;3.10;99.90
15083;DHT22;7640;53.116;6.878;2024-01-11T15:47:39;3.20;99.90
15083;DHT22;7640;53.116;6.878;2024-01-11T15:50:10;3.10;99.90
15083;DHT22;7640;53.116;6.878;2024-01-11T15:52:39;3.10;99.90
15083;DHT22;7640;53.116;6.878;2024-01-11T15:55:09;3.10;99.90
15083;DHT22;7640;53.116;6.878;2024-01-11T15:57:37;3.10;99.90
15083;DHT22;7640;53.116;6.878;2024-01-11T16:00:07;3.10;99.90
15083;DHT22;7640;53.116;6.878;2024-01-11T16:02:37;3.10;99.90
15083;DHT22;7640;53.116;6.878;2024-01-11T16:05:09;3.10;99.90
15083;DHT22;7640;53.116;6.878;2024-01-11T16:07:38;3.10;99.90
15083;DHT22;7640;53.116;6.878;2024-01-11T16:10:08;3.10;99.90